Time;durP1;ratioP1;P1;durP2;ratioP2;P2;SDS_P1;SDS_P2;PMS_P1;PMS_P2;Temp;Humidity;BMP_temperature;BMP_pressure;BME280_temperature;BME280_humidity;BME280_pressure;Samples;Min_cycle;Max_cycle;Signal;HPM_P1;HPM_P2
2022/12/20 00:01:43;;;;;;;0.50;0.10;;;3.90;1.00;;;;;;6012919;23;20496;-75
2022/12/20 00:04:19;;;;;;;3.03;2.10;;;3.80;1.00;;;;;;6012398;23;20385;-76
2022/12/20 00:06:47;;;;;;;1.00;0.83;;;;;;;;;;6013084;23;20472;-72
2022/12/20 00:09:15;;;;;;;0.50;0.10;;;3.80;1.00;;;;;;6011437;23;20416;-72
2022/12/20 00:11:43;;;;;;;0.50;0.10;;;3.80;1.00;;;;;;6010938;23;20954;-72
2022/12/20 00:14:11;;;;;;;20.10;18.57;;;3.90;1.00;;;;;;6010719;23;20414;-72
2022/12/20 00:16:39;;;;;;;4.13;3.93;;;3.90;1.00;;;;;;6011249;23;20447;-72
2022/12/20 00:19:10;;;;;;;0.50;0.10;;;3.90;1.00;;;;;;6010975;23;20414;-72
2022/12/20 00:21:38;;;;;;;0.50;0.10;;;3.90;1.00;;;;;;6011014;23;20738;-72
2022/12/20 00:24:22;;;;;;;0.50;0.20;;;3.90;1.00;;;;;;5133085;27;20552;-73
2022/12/20 00:26:53;;;;;;;11.10;9.90;;;3.90;1.00;;;;;;5137717;27;20459;-73
2022/12/20 00:29:21;;;;;;;0.50;0.10;;;;;;;;;;5136872;27;20481;-73
2022/12/20 00:31:49;;;;;;;0.50;0.10;;;3.90;1.00;;;;;;5137040;27;20450;-73
2022/12/20 00:34:17;;;;;;;0.50;0.10;;;3.90;1.00;;;;;;5129497;28;20427;-73
2022/12/20 00:36:45;;;;;;;0.50;0.20;;;3.90;1.00;;;;;;5131004;27;20438;-73
2022/12/20 00:39:12;;;;;;;0.50;0.10;;;3.90;1.00;;;;;;5121133;27;20464;-72
2022/12/20 00:41:42;;;;;;;0.50;0.10;;;3.80;1.00;;;;;;5129058;27;20703;-73
2022/12/20 00:44:10;;;;;;;0.50;0.10;;;3.90;1.00;;;;;;5128193;27;20529;-72
2022/12/20 00:46:37;;;;;;;1.27;1.17;;;3.90;1.00;;;;;;5130232;27;20435;-73
2022/12/20 00:49:06;;;;;;;0.50;0.20;;;3.90;1.00;;;;;;5130006;27;20466;-73
2022/12/20 00:51:34;;;;;;;0.50;0.10;;;3.90;1.00;;;;;;5129895;27;20447;-73
2022/12/20 00:54:01;;;;;;;0.50;0.10;;;3.80;1.00;;;;;;5130106;27;20439;-72
2022/12/20 00:56:29;;;;;;;0.50;0.10;;;3.80;1.00;;;;;;5130137;27;20435;-72
2022/12/20 00:58:59;;;;;;;0.50;0.10;;;3.80;1.00;;;;;;5130092;27;20439;-73
2022/12/20 05:02:54;;;;;;;0.50;0.30;;;4.50;1.00;;;;;;4937817;29;20484;-79
2022/12/20 05:05:22;;;;;;;0.70;0.60;;;4.40;1.00;;;;;;4930095;29;20473;-79
2022/12/20 05:07:50;;;;;;;0.50;0.10;;;4.30;1.00;;;;;;4940822;29;20882;-79
2022/12/20 05:10:21;;;;;;;0.50;0.10;;;4.30;1.00;;;;;;4942442;29;20574;-80
2022/12/20 05:12:49;;;;;;;0.50;0.10;;;4.30;1.00;;;;;;4925970;29;20452;-80
2022/12/20 05:15:17;;;;;;;0.50;0.10;;;4.40;1.00;;;;;;4951399;23;20496;-73
2022/12/20 05:17:45;;;;;;;0.50;0.20;;;4.40;1.00;;;;;;4947117;29;20455;-73
2022/12/20 05:20:14;;;;;;;0.50;0.10;;;4.40;1.00;;;;;;4947427;29;20439;-73
2022/12/20 05:28:13;;;;;;;0.50;0.10;;;4.40;1.00;;;;;;4945529;29;20455;-72
2022/12/20 05:30:41;;;;;;;0.50;0.10;;;4.40;1.00;;;;;;4931193;29;20467;-73
2022/12/20 05:33:08;;;;;;;0.50;0.10;;;4.40;1.00;;;;;;4946009;29;20448;-73
2022/12/20 05:35:38;;;;;;;0.50;0.10;;;4.40;1.00;;;;;;4949525;29;20498;-73
2022/12/20 05:38:05;;;;;;;0.50;0.20;;;4.40;1.00;;;;;;4952051;29;20442;-73
2022/12/20 05:40:34;;;;;;;0.50;0.10;;;4.40;1.00;;;;;;4931457;29;20453;-73
2022/12/20 05:43:02;;;;;;;0.50;0.10;;;4.40;1.00;;;;;;4932792;29;20500;-74
2022/12/20 05:45:30;;;;;;;0.50;0.10;;;4.40;1.00;;;;;;4952341;29;20468;-74
2022/12/20 05:47:58;;;;;;;0.50;0.10;;;4.50;1.00;;;;;;4941693;29;20510;-73
2022/12/20 05:50:25;;;;;;;0.50;0.10;;;4.50;1.00;;;;;;4943531;29;20456;-74
2022/12/20 05:52:55;;;;;;;0.50;0.20;;;4.50;1.00;;;;;;4950455;29;20507;-73
2022/12/20 05:55:23;;;;;;;3.23;1.53;;;4.50;1.00;;;;;;4952494;29;20459;-74
2022/12/20 05:57:52;;;;;;;0.50;0.20;;;4.50;1.00;;;;;;4953662;29;20443;-73
2022/12/20 06:00:20;;;;;;;0.50;0.10;;;4.50;1.00;;;;;;4951453;29;20465;-74
2022/12/20 06:02:48;;;;;;;0.50;0.20;;;4.50;1.00;;;;;;4961111;29;20448;-74
2022/12/20 06:05:16;;;;;;;0.50;0.10;;;4.50;1.00;;;;;;4960224;29;20518;-74
2022/12/20 06:07:44;;;;;;;0.50;0.10;;;4.50;1.00;;;;;;4958077;29;20443;-73
2022/12/20 06:10:15;;;;;;;0.50;0.20;;;4.50;1.00;;;;;;4955334;29;20444;-75
2022/12/20 06:12:43;;;;;;;1.37;1.10;;;4.50;1.00;;;;;;4952483;29;20456;-73
2022/12/20 06:15:12;;;;;;;0.60;0.50;;;4.60;1.00;;;;;;4948020;29;20483;-74
2022/12/20 06:17:40;;;;;;;0.50;0.10;;;4.50;1.00;;;;;;4948808;29;20444;-74
2022/12/20 06:20:09;;;;;;;1.90;0.93;;;4.50;1.00;;;;;;4950146;29;20465;-74
2022/12/20 06:22:37;;;;;;;0.60;0.40;;;4.50;1.00;;;;;;4949810;29;20643;-73
2022/12/20 06:25:08;;;;;;;0.60;0.20;;;4.50;1.00;;;;;;4931227;29;20539;-73
2022/12/20 06:27:37;;;;;;;0.50;0.10;;;4.50;1.00;;;;;;4922120;29;20451;-74
2022/12/20 06:30:06;;;;;;;1.33;1.33;;;4.50;1.00;;;;;;4920196;29;20471;-74
2022/12/20 06:32:34;;;;;;;0.50;0.10;;;4.40;1.00;;;;;;4922542;29;20479;-74
2022/12/20 06:35:02;;;;;;;2.50;2.20;;;4.30;1.00;;;;;;4930984;29;20461;-74
2022/12/20 06:37:30;;;;;;;2.43;1.40;;;4.40;1.00;;;;;;4928437;29;20974;-72
2022/12/20 06:39:58;;;;;;;0.50;0.10;;;4.40;1.00;;;;;;4926856;29;20452;-73
2022/12/20 06:42:26;;;;;;;0.50;0.10;;;4.40;1.00;;;;;;4930695;29;20488;-73
2022/12/20 06:44:56;;;;;;;4.47;4.30;;;4.30;1.00;;;;;;4927532;29;21033;-73
2022/12/20 06:47:23;;;;;;;0.63;0.47;;;4.40;1.00;;;;;;4933645;29;20454;-74
2022/12/20 06:49:51;;;;;;;0.50;0.30;;;4.00;1.00;;;;;;4928440;29;20956;-75
2022/12/20 06:52:19;;;;;;;1.13;1.07;;;4.40;1.00;;;;;;4923752;29;20441;-75
2022/12/20 06:54:47;;;;;;;20.80;19.80;;;4.50;1.00;;;;;;4925940;29;20660;-73
2022/12/20 06:57:15;;;;;;;4.63;4.37;;;4.50;1.00;;;;;;4927262;29;20456;-74
2022/12/20 06:59:43;;;;;;;0.50;0.10;;;4.50;1.00;;;;;;4930821;29;20803;-74
2022/12/20 07:02:12;;;;;;;0.60;0.40;;;4.50;1.00;;;;;;4924848;29;20455;-74
2022/12/20 07:04:41;;;;;;;0.50;0.30;;;4.60;1.00;;;;;;4926206;29;20606;-74
2022/12/20 07:07:09;;;;;;;0.50;0.10;;;4.60;1.00;;;;;;4927205;29;20495;-74
2022/12/20 07:09:40;;;;;;;1.33;1.23;;;4.60;1.00;;;;;;4931435;29;20455;-74
2022/12/20 07:12:08;;;;;;;0.83;0.83;;;4.60;1.00;;;;;;4927952;29;20966;-74
2022/12/20 07:14:36;;;;;;;0.50;0.10;;;4.60;1.00;;;;;;4917412;29;20556;-74
2022/12/20 07:17:04;;;;;;;1.50;1.40;;;4.60;1.00;;;;;;4917733;29;20453;-73
2022/12/20 07:19:35;;;;;;;0.50;0.20;;;4.60;1.00;;;;;;4926197;29;20478;-73
2022/12/20 07:22:04;;;;;;;0.50;0.10;;;4.60;1.00;;;;;;4936376;29;20452;-74
2022/12/20 07:24:32;;;;;;;0.50;0.10;;;4.70;1.00;;;;;;4939248;29;20566;-74
2022/12/20 07:27:00;;;;;;;0.50;0.20;;;4.70;1.00;;;;;;4939987;29;20455;-74
2022/12/20 07:29:29;;;;;;;0.50;0.10;;;4.70;1.00;;;;;;4940715;29;20559;-73
2022/12/20 07:31:57;;;;;;;0.50;0.10;;;4.70;1.00;;;;;;4926755;29;20960;-74
2022/12/20 07:34:25;;;;;;;0.50;0.10;;;4.80;1.00;;;;;;4921416;29;20477;-74
2022/12/20 07:36:54;;;;;;;0.60;0.50;;;4.70;1.00;;;;;;4920444;29;20489;-73
2022/12/20 07:39:22;;;;;;;0.50;0.10;;;4.80;1.00;;;;;;4918791;29;20456;-74
2022/12/20 07:41:52;;;;;;;0.50;0.10;;;4.90;1.00;;;;;;4920232;29;20456;-74
2022/12/20 07:44:21;;;;;;;0.60;0.17;;;4.90;1.00;;;;;;4918682;29;20491;-74
2022/12/20 07:46:49;;;;;;;0.60;0.20;;;4.90;1.00;;;;;;4935435;29;20527;-74
2022/12/20 07:49:16;;;;;;;0.50;0.10;;;4.90;1.00;;;;;;4937019;29;20452;-73
2022/12/20 07:51:48;;;;;;;0.50;0.10;;;4.90;1.00;;;;;;4935956;29;20448;-74
2022/12/20 07:54:20;;;;;;;0.50;0.10;;;4.90;1.00;;;;;;4926561;29;20473;-74
2022/12/20 07:56:51;;;;;;;0.93;0.93;;;4.90;1.00;;;;;;4917193;29;20512;-73
2022/12/20 07:59:22;;;;;;;0.50;0.10;;;4.90;1.00;;;;;;4918000;29;20586;-73
2022/12/20 08:01:50;;;;;;;0.50;0.10;;;4.90;1.00;;;;;;4920371;29;20448;-73
2022/12/20 08:04:23;;;;;;;0.50;0.10;;;5.00;1.00;;;;;;4936413;29;20484;-73
2022/12/20 08:06:54;;;;;;;0.50;0.10;;;5.00;1.00;;;;;;4942546;29;20450;-72
2022/12/20 08:09:25;;;;;;;0.50;0.20;;;5.00;1.00;;;;;;4940080;29;20523;-74
2022/12/20 08:11:54;;;;;;;0.50;0.10;;;5.10;1.00;;;;;;4937409;29;20449;-72
2022/12/20 08:14:22;;;;;;;0.50;0.10;;;5.10;1.00;;;;;;4936251;29;20483;-74
2022/12/20 08:16:50;;;;;;;0.50;0.10;;;5.10;1.00;;;;;;4935145;29;20484;-72
2022/12/20 08:19:18;;;;;;;0.50;0.10;;;5.20;1.00;;;;;;4935304;29;20447;-74
2022/12/20 08:21:45;;;;;;;0.50;0.10;;;5.10;1.00;;;;;;4935221;29;21002;-73
2022/12/20 08:24:13;;;;;;;0.73;0.63;;;5.20;1.00;;;;;;4934700;29;20468;-73
2022/12/20 08:26:42;;;;;;;2.73;2.10;;;5.20;1.00;;;;;;4933975;29;20492;-73
2022/12/20 08:29:10;;;;;;;0.50;0.10;;;5.20;1.00;;;;;;4916516;29;20863;-72
2022/12/20 08:31:39;;;;;;;0.50;0.20;;;5.20;1.00;;;;;;4915742;29;20448;-73
2022/12/20 08:34:14;;;;;;;0.50;0.20;;;5.30;1.00;;;;;;4915360;29;20601;-73
2022/12/20 08:36:42;;;;;;;3.50;3.30;;;5.30;1.00;;;;;;4915893;29;20959;-72
2022/12/20 08:39:10;;;;;;;0.50;0.20;;;5.40;1.00;;;;;;4916750;29;20456;-73
2022/12/20 08:41:38;;;;;;;0.50;0.10;;;5.40;1.00;;;;;;4930353;29;20456;-73
2022/12/20 08:44:08;;;;;;;2.93;2.83;;;5.50;1.00;;;;;;4926329;29;21001;-72
2022/12/20 08:46:36;;;;;;;0.50;0.10;;;5.50;1.00;;;;;;4922266;29;20488;-73
2022/12/20 08:49:04;;;;;;;2.97;2.83;;;5.60;1.00;;;;;;4921858;29;20535;-73
2022/12/20 08:51:32;;;;;;;12.97;12.33;;;5.60;1.00;;;;;;4920170;29;20460;-72
2022/12/20 08:54:01;;;;;;;0.60;0.50;;;5.60;1.00;;;;;;4920266;29;21030;-74
2022/12/20 08:56:29;;;;;;;0.60;0.50;;;5.60;1.00;;;;;;4919864;29;20444;-73
2022/12/20 08:58:57;;;;;;;1.20;1.17;;;5.60;1.00;;;;;;4920197;29;20512;-73
2022/12/20 09:01:29;;;;;;;0.50;0.10;;;5.60;1.00;;;;;;4920268;29;20458;-73
2022/12/20 09:03:57;;;;;;;0.50;0.10;;;5.70;1.00;;;;;;4920650;29;20457;-73
2022/12/20 09:06:25;;;;;;;0.50;0.10;;;5.70;1.00;;;;;;4921962;29;20484;-72
2022/12/20 09:08:54;;;;;;;0.50;0.10;;;5.80;1.00;;;;;;4922500;29;20453;-73
2022/12/20 09:11:24;;;;;;;0.97;0.97;;;5.80;1.00;;;;;;4932359;29;20451;-72
2022/12/20 09:13:54;;;;;;;0.60;0.30;;;5.80;1.00;;;;;;4935234;29;20815;-74
2022/12/20 09:16:25;;;;;;;0.50;0.10;;;5.80;1.00;;;;;;4940534;29;20462;-73
2022/12/20 09:18:57;;;;;;;0.50;0.10;;;5.90;1.00;;;;;;4939088;29;20448;-73
2022/12/20 09:21:32;;;;;;;0.50;0.10;;;5.90;1.00;;;;;;4938125;29;20455;-73
2022/12/20 09:24:00;;;;;;;0.50;0.10;;;6.00;1.00;;;;;;4938426;29;20468;-73
2022/12/20 09:26:29;;;;;;;0.50;0.10;;;6.00;1.00;;;;;;4938770;29;21094;-73
2022/12/20 09:28:57;;;;;;;0.50;0.10;;;6.00;1.00;;;;;;4939157;29;20451;-73
2022/12/20 09:31:26;;;;;;;0.50;0.10;;;6.00;1.00;;;;;;4939578;29;20486;-72
2022/12/20 09:33:57;;;;;;;0.50;0.10;;;6.10;1.00;;;;;;4925861;29;20983;-73
2022/12/20 09:36:27;;;;;;;0.50;0.10;;;6.00;1.00;;;;;;4918933;29;20445;-74
2022/12/20 09:38:56;;;;;;;0.50;0.10;;;6.10;1.00;;;;;;4919700;29;20445;-72
2022/12/20 09:41:32;;;;;;;0.50;0.10;;;6.10;1.00;;;;;;4919266;29;20459;-73
2022/12/20 09:44:05;;;;;;;0.50;0.10;;;6.20;1.00;;;;;;4918619;29;20928;-71
2022/12/20 09:46:35;;;;;;;0.50;0.10;;;6.10;1.00;;;;;;4935692;29;20498;-73
2022/12/20 09:49:05;;;;;;;0.50;0.10;;;6.10;1.00;;;;;;4937510;29;20510;-73
2022/12/20 09:52:00;;;;;;;0.50;0.10;;;6.10;1.00;;;;;;4931764;29;20447;-72
2022/12/20 09:54:40;;;;;;;0.50;0.10;;;6.20;1.00;;;;;;4936823;29;20468;-72
2022/12/20 09:57:18;;;;;;;2.00;1.90;;;6.20;1.00;;;;;;4935031;29;20447;-71
2022/12/20 09:59:45;;;;;;;0.50;0.10;;;6.10;1.00;;;;;;4937724;29;20510;-73
2022/12/20 10:02:22;;;;;;;0.50;0.10;;;6.20;1.00;;;;;;4938178;29;20520;-74
2022/12/20 10:05:17;;;;;;;0.50;0.10;;;6.20;1.00;;;;;;4937142;29;20563;-74
2022/12/20 10:07:53;;;;;;;0.50;0.10;;;6.20;1.00;;;;;;4937857;29;20450;-73
2022/12/20 10:10:47;;;;;;;0.50;0.10;;;6.20;1.00;;;;;;4928778;29;20471;-72
2022/12/20 10:13:29;;;;;;;0.50;0.10;;;6.30;1.00;;;;;;4927667;29;20447;-74
2022/12/20 10:16:05;;;;;;;0.50;0.10;;;6.30;1.00;;;;;;4925425;29;20559;-73
2022/12/20 10:18:45;;;;;;;0.50;0.10;;;6.30;1.00;;;;;;4928639;29;20865;-73
2022/12/20 10:21:21;;;;;;;0.50;0.10;;;6.30;1.00;;;;;;4935471;29;20457;-73
2022/12/20 10:23:59;;;;;;;0.50;0.10;;;6.30;1.00;;;;;;4936138;29;20447;-73
2022/12/20 10:26:28;;;;;;;0.50;0.30;;;6.30;1.00;;;;;;4936829;29;20495;-74
2022/12/20 10:28:56;;;;;;;0.50;0.10;;;6.30;1.00;;;;;;4936926;29;20852;-74
2022/12/20 10:31:25;;;;;;;0.50;0.10;;;6.30;1.00;;;;;;4932390;29;20941;-73
2022/12/20 10:33:53;;;;;;;0.50;0.10;;;6.30;1.00;;;;;;4936055;29;20448;-72
2022/12/20 10:36:25;;;;;;;0.50;0.10;;;6.30;1.00;;;;;;4937000;29;20452;-73
2022/12/20 10:38:55;;;;;;;0.50;0.10;;;6.30;1.00;;;;;;4937246;29;20484;-72
2022/12/20 10:41:26;;;;;;;0.50;0.10;;;6.30;1.00;;;;;;4924325;29;20444;-73
2022/12/20 10:43:59;;;;;;;0.50;0.20;;;6.30;1.00;;;;;;4936131;29;20588;-72
2022/12/20 10:46:37;;;;;;;0.50;0.10;;;6.30;1.00;;;;;;4936482;29;20487;-73
2022/12/20 10:49:26;;;;;;;0.50;0.10;;;6.30;1.00;;;;;;4937231;29;20958;-73
2022/12/20 10:51:58;;;;;;;0.50;0.10;;;6.30;1.00;;;;;;4936775;29;20511;-73
2022/12/20 10:54:31;;;;;;;0.50;0.10;;;6.30;1.00;;;;;;4935458;29;20482;-76
2022/12/20 10:57:02;;;;;;;0.50;0.10;;;6.30;1.00;;;;;;4946105;29;21020;-75
2022/12/20 10:59:34;;;;;;;0.50;0.10;;;6.40;1.00;;;;;;4956431;29;20447;-73
2022/12/20 11:02:03;;;;;;;0.50;0.10;;;6.40;1.00;;;;;;4958602;29;20974;-73
2022/12/20 11:04:34;;;;;;;0.50;0.10;;;7.80;1.00;;;;;;4960286;29;20467;-72
2022/12/20 11:07:23;;;;;;;0.60;0.40;;;6.50;1.00;;;;;;4940145;29;20488;-73
2022/12/20 11:09:54;;;;;;;0.50;0.10;;;6.60;1.00;;;;;;4938429;29;20459;-72
2022/12/20 11:12:22;;;;;;;0.50;0.10;;;6.60;1.00;;;;;;4937374;29;21182;-73
2022/12/20 11:14:50;;;;;;;0.70;0.70;;;6.70;1.00;;;;;;4936356;29;20507;-71
2022/12/20 11:17:24;;;;;;;0.50;0.10;;;6.70;1.00;;;;;;4934845;29;20484;-72
2022/12/20 11:20:26;;;;;;;0.50;0.30;;;6.80;1.00;;;;;;4935088;29;20590;-74
2022/12/20 11:23:04;;;;;;;0.50;0.10;;;6.80;1.00;;;;;;4935080;29;21005;-74
2022/12/20 11:25:44;;;;;;;0.50;0.10;;;6.80;1.00;;;;;;4935523;29;20468;-73
2022/12/20 11:28:25;;;;;;;0.50;0.20;;;6.80;1.00;;;;;;4925534;29;20955;-73
2022/12/20 11:31:04;;;;;;;0.50;0.10;;;6.80;1.00;;;;;;4916561;29;20889;-75
2022/12/20 11:33:52;;;;;;;0.50;0.10;;;6.90;1.00;;;;;;4915715;29;20896;-74
2022/12/20 11:36:34;;;;;;;0.50;0.10;;;6.90;1.00;;;;;;4916482;29;20785;-72
2022/12/20 11:39:12;;;;;;;0.50;0.10;;;6.90;1.00;;;;;;4917808;29;20512;-71
2022/12/20 11:41:47;;;;;;;0.50;0.10;;;6.90;1.00;;;;;;4935522;29;20444;-73
2022/12/20 11:44:25;;;;;;;0.50;0.10;;;7.00;1.00;;;;;;4935096;29;20470;-72
2022/12/20 11:47:21;;;;;;;0.50;0.10;;;7.00;1.00;;;;;;4923872;29;20563;-73
2022/12/20 11:50:03;;;;;;;0.50;0.10;;;7.00;1.00;;;;;;4916082;29;20456;-73
2022/12/20 11:52:38;;;;;;;0.50;0.20;;;7.00;1.00;;;;;;4927383;29;20515;-74
2022/12/20 11:55:23;;;;;;;0.60;0.40;;;7.00;1.00;;;;;;4935626;29;20517;-73
2022/12/20 11:57:57;;;;;;;0.50;0.10;;;7.00;1.00;;;;;;4935882;29;20454;-73
2022/12/20 12:00:51;;;;;;;0.93;0.93;;;7.00;1.00;;;;;;4935213;29;20477;-73
2022/12/20 12:03:27;;;;;;;4.60;4.40;;;7.00;1.00;;;;;;4935035;29;20542;-75
2022/12/20 12:05:59;;;;;;;0.50;0.10;;;6.90;1.00;;;;;;4934321;29;20482;-73
2022/12/20 12:08:35;;;;;;;0.50;0.20;;;6.90;1.00;;;;;;4936192;29;20511;-72
2022/12/20 12:11:12;;;;;;;2.77;2.67;;;6.90;1.00;;;;;;4935487;29;20447;-73
2022/12/20 12:14:03;;;;;;;1.57;1.30;;;6.90;1.00;;;;;;4934967;29;20472;-73
2022/12/20 12:16:35;;;;;;;0.60;0.30;;;6.90;1.00;;;;;;4935176;29;20444;-73
2022/12/20 12:19:03;;;;;;;0.50;0.10;;;6.90;1.00;;;;;;4915983;29;20492;-73
2022/12/20 12:21:35;;;;;;;0.50;0.10;;;6.90;1.00;;;;;;4915432;29;20936;-72
2022/12/20 12:24:07;;;;;;;0.50;0.10;;;6.90;1.00;;;;;;4915571;29;20468;-73
2022/12/20 12:26:39;;;;;;;0.50;0.30;;;6.90;1.00;;;;;;4915899;29;20496;-72
2022/12/20 12:29:13;;;;;;;0.50;0.20;;;6.90;1.00;;;;;;4920803;29;20456;-73
2022/12/20 12:31:47;;;;;;;1.13;1.13;;;6.90;1.00;;;;;;4934537;29;20954;-73
2022/12/20 12:34:27;;;;;;;0.50;0.10;;;7.00;1.00;;;;;;4935452;29;20474;-74
2022/12/20 12:37:20;;;;;;;0.50;0.20;;;7.00;1.00;;;;;;4949283;29;20445;-73
2022/12/20 12:40:16;;;;;;;0.53;0.20;;;7.00;1.00;;;;;;4954102;29;20498;-73
2022/12/20 12:43:11;;;;;;;0.50;0.33;;;6.90;1.00;;;;;;4926757;29;20467;-72
2022/12/20 12:45:45;;;;;;;1.47;1.43;;;6.90;1.00;;;;;;4934533;29;20562;-73
2022/12/20 12:48:18;;;;;;;0.50;0.10;;;6.90;1.00;;;;;;4935253;29;20483;-73
2022/12/20 12:50:48;;;;;;;0.50;0.10;;;7.00;1.00;;;;;;4934647;29;20448;-73
2022/12/20 12:53:19;;;;;;;0.60;0.53;;;7.00;1.00;;;;;;4932990;29;20460;-73
2022/12/20 12:55:51;;;;;;;0.50;0.10;;;7.00;1.00;;;;;;4927040;29;20490;-73
2022/12/20 12:58:41;;;;;;;0.50;0.10;;;7.10;1.00;;;;;;4932969;29;20492;-73
2022/12/20 13:01:50;;;;;;;0.50;0.10;;;7.10;1.00;;;;;;4935105;29;20444;-74
2022/12/20 13:04:28;;;;;;;0.60;0.47;;;7.10;1.00;;;;;;4933839;29;20474;-73
2022/12/20 13:07:01;;;;;;;2.90;2.43;;;7.10;1.00;;;;;;4934738;29;21091;-73
2022/12/20 13:09:39;;;;;;;4.30;3.90;;;7.10;1.00;;;;;;4934429;29;20456;-74
2022/12/20 13:12:49;;;;;;;0.70;0.70;;;7.10;1.00;;;;;;4934963;29;20439;-73
2022/12/20 13:16:04;;;;;;;18.27;17.17;;;7.10;1.00;;;;;;4934323;29;20475;-74
2022/12/20 13:18:33;;;;;;;0.50;0.10;;;7.20;1.00;;;;;;4929291;29;20444;-73
2022/12/20 13:21:31;;;;;;;0.50;0.10;;;7.20;1.00;;;;;;4934556;29;20479;-73
2022/12/20 13:24:41;;;;;;;0.77;0.67;;;7.20;1.00;;;;;;4915164;29;20975;-73
2022/12/20 13:27:21;;;;;;;0.53;0.40;;;7.20;1.00;;;;;;4915425;29;20484;-72
2022/12/20 13:30:08;;;;;;;0.50;0.10;;;7.20;1.00;;;;;;4923386;29;20470;-73
2022/12/20 13:33:23;;;;;;;10.13;9.30;;;7.20;1.00;;;;;;4921138;29;20459;-73
2022/12/20 13:35:59;;;;;;;0.70;0.70;;;7.20;1.00;;;;;;4918745;29;20473;-73
2022/12/20 13:38:52;;;;;;;0.70;0.47;;;7.20;1.00;;;;;;4919122;29;20828;-72
2022/12/20 13:41:37;;;;;;;0.50;0.10;;;7.20;1.00;;;;;;4938527;29;20494;-73
2022/12/20 13:44:24;;;;;;;0.60;0.40;;;7.20;1.00;;;;;;4942287;29;20471;-73
2022/12/20 13:46:58;;;;;;;0.60;0.50;;;7.20;1.00;;;;;;4940465;29;20827;-73
2022/12/20 13:49:29;;;;;;;0.50;0.10;;;7.20;1.00;;;;;;4936750;29;20458;-73
2022/12/20 13:52:25;;;;;;;0.50;0.10;;;7.20;1.00;;;;;;4937252;29;20801;-72
2022/12/20 13:54:55;;;;;;;0.50;0.10;;;7.30;1.00;;;;;;4936470;29;21045;-73
2022/12/20 13:57:29;;;;;;;0.50;0.10;;;7.40;1.00;;;;;;4936297;29;20451;-73
2022/12/20 14:00:00;;;;;;;0.50;0.10;;;7.40;1.00;;;;;;4937847;29;20450;-73
2022/12/20 14:02:39;;;;;;;1.13;0.93;;;7.40;1.00;;;;;;4937275;29;20447;-73
2022/12/20 14:05:16;;;;;;;0.50;0.10;;;7.40;1.00;;;;;;4936593;29;20475;-74
2022/12/20 14:07:47;;;;;;;0.50;0.10;;;7.50;1.00;;;;;;4931848;29;20507;-73
2022/12/20 14:10:20;;;;;;;0.50;0.10;;;7.50;1.00;;;;;;4929997;29;20456;-73
2022/12/20 14:12:50;;;;;;;0.50;0.10;;;7.50;1.00;;;;;;4936825;29;20451;-73
2022/12/20 14:15:23;;;;;;;0.50;0.30;;;7.50;1.00;;;;;;4936834;29;20579;-74
2022/12/20 14:17:51;;;;;;;0.50;0.10;;;7.50;1.00;;;;;;4936637;29;20463;-74
2022/12/20 14:20:24;;;;;;;0.50;0.10;;;7.50;1.00;;;;;;4937492;29;20452;-74
2022/12/20 14:22:58;;;;;;;0.50;0.10;;;7.50;1.00;;;;;;4937437;29;20451;-73
2022/12/20 14:25:38;;;;;;;0.50;0.10;;;7.50;1.00;;;;;;4937780;29;20944;-73
2022/12/20 14:28:17;;;;;;;0.50;0.10;;;7.40;1.00;;;;;;4937260;29;20495;-73
2022/12/20 14:30:54;;;;;;;0.50;0.10;;;;;;;;;;4937772;29;20496;-73
2022/12/20 14:33:29;;;;;;;0.50;0.10;;;7.40;1.00;;;;;;4937076;29;20479;-72
2022/12/20 14:35:58;;;;;;;1.00;0.90;;;7.40;1.00;;;;;;4937262;29;20479;-73
2022/12/20 14:38:30;;;;;;;0.50;0.10;;;7.40;1.00;;;;;;4937367;29;21081;-72
2022/12/20 14:40:58;;;;;;;0.50;0.20;;;7.40;1.00;;;;;;4929372;29;20457;-73
2022/12/20 14:43:29;;;;;;;4.20;4.00;;;7.30;1.00;;;;;;4936382;29;20447;-74
2022/12/20 14:46:17;;;;;;;0.50;0.10;;;7.30;1.00;;;;;;4937287;29;20479;-73
2022/12/20 14:48:45;;;;;;;0.50;0.10;;;7.30;1.00;;;;;;4937101;29;20483;-73
2022/12/20 14:51:19;;;;;;;0.50;0.10;;;7.30;1.00;;;;;;4936571;29;20834;-75
2022/12/20 14:53:52;;;;;;;0.50;0.13;;;7.30;1.00;;;;;;4935253;29;20455;-73
2022/12/20 14:56:21;;;;;;;0.50;0.10;;;7.30;1.00;;;;;;4935584;29;20531;-74
2022/12/20 14:59:06;;;;;;;0.50;0.10;;;6.20;1.00;;;;;;4918469;29;20481;-73
2022/12/20 15:01:34;;;;;;;0.50;0.10;;;7.30;1.00;;;;;;4917035;29;20456;-75
2022/12/20 15:04:23;;;;;;;0.50;0.10;;;7.30;1.00;;;;;;4916814;29;20492;-72
2022/12/20 15:06:52;;;;;;;0.50;0.10;;;7.30;1.00;;;;;;4917506;29;20437;-72
2022/12/20 15:09:21;;;;;;;0.50;0.10;;;7.30;1.00;;;;;;4917423;29;20485;-73
2022/12/20 15:11:50;;;;;;;0.50;0.10;;;7.40;1.00;;;;;;4930632;29;20451;-73
2022/12/20 15:14:33;;;;;;;0.50;0.10;;;7.40;1.00;;;;;;4934963;29;20959;-73
2022/12/20 15:17:02;;;;;;;0.70;0.60;;;7.30;1.00;;;;;;4921008;29;20549;-73
2022/12/20 15:19:31;;;;;;;0.50;0.10;;;7.30;1.00;;;;;;4916839;29;20448;-73
2022/12/20 15:22:06;;;;;;;0.60;0.50;;;7.40;1.00;;;;;;4916096;29;20506;-74
2022/12/20 15:24:35;;;;;;;0.50;0.20;;;7.30;1.00;;;;;;4919007;29;20476;-74
2022/12/20 15:27:03;;;;;;;0.50;0.10;;;7.30;1.00;;;;;;4916448;29;20456;-74
2022/12/20 15:29:31;;;;;;;0.50;0.10;;;7.30;1.00;;;;;;4916751;29;20487;-74
2022/12/20 15:32:05;;;;;;;0.50;0.10;;;7.30;1.00;;;;;;4916602;29;20452;-76
2022/12/20 15:34:35;;;;;;;0.50;0.10;;;7.30;1.00;;;;;;4916384;29;20468;-75
2022/12/20 15:37:04;;;;;;;0.50;0.10;;;7.20;1.00;;;;;;4916469;29;20448;-73
2022/12/20 15:39:33;;;;;;;0.50;0.10;;;7.30;1.00;;;;;;4916663;29;20790;-74
2022/12/20 15:42:04;;;;;;;0.50;0.10;;;7.20;1.00;;;;;;4929262;29;20479;-74
2022/12/20 15:44:34;;;;;;;0.50;0.10;;;7.20;1.00;;;;;;4936016;29;20507;-74
2022/12/20 15:47:02;;;;;;;0.50;0.10;;;7.20;1.00;;;;;;4937156;29;20494;-74
2022/12/20 15:49:32;;;;;;;0.50;0.20;;;7.20;1.00;;;;;;4935538;29;20484;-73
2022/12/20 15:52:00;;;;;;;0.50;0.10;;;7.20;1.00;;;;;;4936825;29;20452;-72
2022/12/20 15:54:30;;;;;;;0.50;0.10;;;7.20;1.00;;;;;;4933396;29;20989;-73
2022/12/20 15:57:01;;;;;;;0.50;0.10;;;7.20;1.00;;;;;;4931072;29;20447;-74
2022/12/20 15:59:31;;;;;;;0.50;0.10;;;7.20;1.00;;;;;;4921481;29;20968;-73
2022/12/20 16:02:22;;;;;;;0.63;0.63;;;7.10;1.00;;;;;;4935315;29;20451;-74
2022/12/20 16:04:51;;;;;;;0.97;0.97;;;7.10;1.00;;;;;;4935170;29;20472;-74
2022/12/20 16:07:19;;;;;;;3.43;3.20;;;7.10;1.00;;;;;;4934157;29;20543;-73
2022/12/20 16:09:47;;;;;;;0.50;0.10;;;7.00;1.00;;;;;;4915703;29;20492;-74
2022/12/20 16:12:17;;;;;;;0.50;0.10;;;7.00;1.00;;;;;;4929220;29;20453;-74
2022/12/20 16:14:47;;;;;;;0.60;0.10;;;7.00;1.00;;;;;;4915890;29;20564;-75
2022/12/20 16:17:15;;;;;;;0.50;0.10;;;7.10;1.00;;;;;;4916502;29;20456;-73
2022/12/20 16:19:44;;;;;;;0.50;0.10;;;7.10;1.00;;;;;;4934181;29;20448;-74
2022/12/20 16:22:15;;;;;;;0.50;0.10;;;7.00;1.00;;;;;;4932997;29;20970;-73
2022/12/20 16:24:44;;;;;;;0.50;0.10;;;7.00;1.00;;;;;;4948879;29;20469;-74
2022/12/20 16:27:12;;;;;;;0.60;0.40;;;7.00;1.00;;;;;;4947040;29;20453;-74
2022/12/20 16:29:40;;;;;;;0.50;0.10;;;7.00;1.00;;;;;;4952411;29;21039;-73
2022/12/20 16:32:14;;;;;;;0.50;0.10;;;7.00;1.00;;;;;;4932364;29;20468;-75
2022/12/20 16:34:42;;;;;;;0.50;0.10;;;7.00;1.00;;;;;;4942297;29;20915;-74
2022/12/20 16:37:11;;;;;;;0.50;0.10;;;7.00;1.00;;;;;;4938596;29;20583;-74
2022/12/20 16:39:39;;;;;;;0.50;0.10;;;7.00;1.00;;;;;;4936007;29;20541;-73
2022/12/20 16:42:12;;;;;;;0.50;0.10;;;7.10;1.00;;;;;;4934535;29;20460;-73
2022/12/20 16:44:43;;;;;;;0.50;0.10;;;7.00;1.00;;;;;;4933950;29;21020;-74
2022/12/20 16:47:12;;;;;;;0.50;0.10;;;7.00;1.00;;;;;;4934120;29;20466;-74
2022/12/20 16:49:41;;;;;;;2.50;2.37;;;7.00;1.00;;;;;;4934721;29;20547;-72
2022/12/20 16:52:19;;;;;;;0.50;0.10;;;7.00;1.00;;;;;;4927854;29;20497;-73
2022/12/20 16:54:47;;;;;;;0.50;0.10;;;7.00;1.00;;;;;;4936454;29;20464;-74
2022/12/20 16:57:15;;;;;;;0.50;0.20;;;7.00;1.00;;;;;;4934033;29;20460;-73
2022/12/20 16:59:43;;;;;;;3.03;1.60;;;7.10;1.00;;;;;;4934269;29;20456;-74
2022/12/20 17:02:23;;;;;;;0.50;0.10;;;7.00;1.00;;;;;;4932499;29;20476;-74
2022/12/20 17:04:51;;;;;;;0.50;0.20;;;7.00;1.00;;;;;;4938667;29;20474;-74
2022/12/20 17:07:19;;;;;;;2.10;2.00;;;7.00;1.00;;;;;;4936153;29;20464;-75
2022/12/20 17:09:47;;;;;;;0.50;0.10;;;7.00;1.00;;;;;;4936963;29;20535;-74
2022/12/20 17:12:15;;;;;;;0.50;0.10;;;7.00;1.00;;;;;;4943278;29;20467;-75
2022/12/20 17:14:43;;;;;;;0.50;0.10;;;7.00;1.00;;;;;;4942996;29;20495;-74
2022/12/20 17:17:11;;;;;;;0.50;0.20;;;7.00;1.00;;;;;;4931430;29;20468;-72
2022/12/20 17:19:41;;;;;;;0.50;0.10;;;7.00;1.00;;;;;;4936668;29;20860;-73
2022/12/20 17:22:12;;;;;;;1.40;1.30;;;7.00;1.00;;;;;;4937000;29;20444;-73
2022/12/20 17:24:57;;;;;;;0.50;0.10;;;7.00;1.00;;;;;;4938400;29;20499;-72
2022/12/20 17:27:25;;;;;;;0.50;0.10;;;7.00;1.00;;;;;;4939180;29;20459;-73
2022/12/20 17:29:52;;;;;;;1.83;1.73;;;7.00;1.00;;;;;;4939087;29;20486;-74
2022/12/20 17:32:22;;;;;;;0.50;0.20;;;7.00;1.00;;;;;;4945554;29;20450;-73
2022/12/20 17:34:51;;;;;;;1.23;1.13;;;7.00;1.00;;;;;;4935747;29;20571;-73
2022/12/20 17:37:19;;;;;;;0.50;0.10;;;7.00;1.00;;;;;;4944439;29;20436;-74
2022/12/20 17:39:48;;;;;;;0.50;0.10;;;7.00;1.00;;;;;;4930542;29;20452;-76
2022/12/20 17:42:16;;;;;;;0.50;0.10;;;7.00;1.00;;;;;;4945245;29;20516;-72
2022/12/20 17:44:45;;;;;;;0.50;0.10;;;7.00;1.00;;;;;;4937783;29;20455;-74